Time;durP1;ratioP1;P1;durP2;ratioP2;P2;SDS_P1;SDS_P2;PMS_P1;PMS_P2;Temp;Humidity;BMP_temperature;BMP_pressure;BME280_temperature;BME280_humidity;BME280_pressure;Samples;Min_cycle;Max_cycle;Signal;HPM_P1;HPM_P2
2022/01/04 00:00:37;;;;;;;25.55;3.58;;;7.20;99.90;;;;;;5028915;28;20053;-75
2022/01/04 00:03:03;;;;;;;24.50;4.00;;;7.40;99.90;;;;;;5048260;28;20049;-76
2022/01/04 00:05:29;;;;;;;27.23;4.00;;;7.40;99.90;;;;;;5048526;28;20123;-75
2022/01/04 00:07:55;;;;;;;25.48;4.07;;;7.40;99.90;;;;;;5019021;28;20048;-74
2022/01/04 00:10:26;;;;;;;32.25;3.90;;;7.40;99.90;;;;;;5013674;28;20041;-74
2022/01/04 00:15:39;;;;;;;25.58;3.97;;;7.30;99.90;;;;;;5031014;28;20272;-75
2022/01/04 00:18:05;;;;;;;21.70;3.70;;;7.30;99.90;;;;;;4999783;28;20053;-74
2022/01/04 00:20:31;;;;;;;26.70;4.22;;;7.30;99.90;;;;;;5001376;28;20064;-74
2022/01/04 00:22:56;;;;;;;28.55;3.80;;;7.30;99.90;;;;;;5000719;28;20494;-75
2022/01/04 00:25:22;;;;;;;25.77;3.85;;;7.20;99.90;;;;;;4990055;28;20049;-74
2022/01/04 00:27:48;;;;;;;25.95;4.10;;;7.20;99.90;;;;;;5005230;28;20049;-74
2022/01/04 00:30:13;;;;;;;24.27;4.47;;;7.20;99.90;;;;;;4987220;28;20079;-74
2022/01/04 00:32:39;;;;;;;24.27;3.55;;;7.20;99.90;;;;;;5000020;28;20045;-73
2022/01/04 00:35:05;;;;;;;29.25;4.25;;;7.20;99.90;;;;;;5013558;28;20237;-74
2022/01/04 00:37:31;;;;;;;34.08;4.13;;;7.30;99.90;;;;;;4998421;28;20060;-75
2022/01/04 00:39:58;;;;;;;30.95;4.88;;;7.30;99.90;;;;;;4999986;28;20045;-74
2022/01/04 00:42:23;;;;;;;30.52;5.00;;;7.30;99.90;;;;;;4982840;28;20396;-74
2022/01/04 00:44:49;;;;;;;39.92;6.32;;;7.20;99.90;;;;;;4999782;28;20098;-73
2022/01/04 00:47:15;;;;;;;38.33;5.30;;;7.30;99.90;;;;;;4984320;28;20056;-74
2022/01/04 00:49:41;;;;;;;26.25;6.25;;;7.30;99.90;;;;;;4983672;28;20076;-74
2022/01/04 00:52:12;;;;;;;30.73;6.07;;;7.20;99.90;;;;;;5000057;28;20629;-74
2022/01/04 00:54:38;;;;;;;26.17;5.25;;;7.30;99.90;;;;;;5003469;28;20042;-74
2022/01/04 00:57:04;;;;;;;32.35;5.25;;;7.30;99.90;;;;;;4989074;28;20049;-74
2022/01/04 00:59:30;;;;;;;26.15;5.00;;;7.30;99.90;;;;;;5002483;28;20037;-74
2022/01/04 01:01:55;;;;;;;35.78;6.20;;;7.30;99.90;;;;;;5001194;28;20033;-74
2022/01/04 01:04:22;;;;;;;39.55;6.13;;;7.40;99.90;;;;;;4986446;28;20071;-75
2022/01/04 01:06:48;;;;;;;24.63;4.80;;;7.40;99.90;;;;;;5006300;28;20175;-74
2022/01/04 01:09:13;;;;;;;33.13;6.40;;;7.30;99.90;;;;;;5003367;28;20149;-74
2022/01/04 01:11:39;;;;;;;36.70;5.82;;;7.40;99.90;;;;;;5036835;28;20076;-75
2022/01/04 01:14:05;;;;;;;22.65;5.50;;;7.30;99.90;;;;;;5024263;28;20060;-75
2022/01/04 01:16:30;;;;;;;28.33;5.65;;;7.40;99.90;;;;;;5030589;28;20048;-75
2022/01/04 01:18:56;;;;;;;27.50;6.05;;;7.40;99.90;;;;;;5008578;28;20076;-75
2022/01/04 01:21:22;;;;;;;32.22;6.20;;;7.40;99.90;;;;;;5016693;28;20114;-74
2022/01/04 01:23:49;;;;;;;25.60;5.22;;;7.40;99.90;;;;;;5026318;28;20506;-75
2022/01/04 01:26:14;;;;;;;37.83;6.43;;;7.40;99.90;;;;;;5028441;28;20547;-74
2022/01/04 01:28:40;;;;;;;31.58;5.38;;;7.40;99.90;;;;;;5022942;28;20128;-74
2022/01/04 01:31:07;;;;;;;29.52;6.00;;;7.40;99.90;;;;;;5015707;28;20126;-74
2022/01/04 01:33:32;;;;;;;35.15;7.63;;;7.40;99.90;;;;;;5015370;28;20598;-74
2022/01/04 01:35:58;;;;;;;30.30;6.03;;;7.50;99.90;;;;;;5002689;28;20033;-74
2022/01/04 01:38:25;;;;;;;29.25;4.97;;;7.50;99.90;;;;;;5049305;28;20041;-74
2022/01/04 01:40:52;;;;;;;40.60;5.78;;;7.50;99.90;;;;;;5002063;28;20056;-74
2022/01/04 01:43:18;;;;;;;28.33;5.13;;;7.50;99.90;;;;;;5004492;28;20048;-74
2022/01/04 01:45:45;;;;;;;27.50;5.72;;;7.50;99.90;;;;;;5000985;28;20111;-74
2022/01/04 01:48:11;;;;;;;37.13;5.20;;;7.50;99.90;;;;;;5001097;28;20509;-74
2022/01/04 01:50:37;;;;;;;34.90;5.45;;;7.50;99.90;;;;;;5016619;28;20451;-74
2022/01/04 01:53:03;;;;;;;39.28;5.78;;;7.40;99.90;;;;;;5001203;28;20486;-74
2022/01/04 01:55:29;;;;;;;27.70;5.00;;;7.40;99.90;;;;;;5016681;28;20044;-74
2022/01/04 01:57:55;;;;;;;36.75;5.50;;;7.40;99.90;;;;;;5028004;28;20041;-74
2022/01/04 02:00:23;;;;;;;35.58;5.20;;;7.40;99.90;;;;;;5028036;28;20456;-74
2022/01/04 02:02:49;;;;;;;35.58;5.15;;;7.40;99.90;;;;;;5023825;28;20099;-74
2022/01/04 02:05:15;;;;;;;37.88;5.40;;;7.40;99.90;;;;;;5025989;28;20457;-74
2022/01/04 02:07:42;;;;;;;28.50;5.47;;;7.40;99.90;;;;;;5014378;28;20049;-75
2022/01/04 02:10:09;;;;;;;37.40;5.28;;;7.40;99.90;;;;;;5018687;28;20234;-76
2022/01/04 02:12:46;;;;;;;34.15;5.32;;;7.40;99.90;;;;;;5048755;28;20057;-75
2022/01/04 02:15:15;;;;;;;38.70;6.40;;;7.40;99.90;;;;;;5038228;28;20116;-75
2022/01/04 02:17:41;;;;;;;35.78;7.38;;;7.40;99.90;;;;;;5017976;28;20529;-74
2022/01/04 02:20:08;;;;;;;34.75;5.43;;;7.40;99.90;;;;;;5003454;28;20076;-74
2022/01/04 02:22:34;;;;;;;30.70;5.35;;;7.40;99.90;;;;;;5020776;28;20498;-74
2022/01/04 02:25:01;;;;;;;28.35;4.93;;;7.30;99.90;;;;;;5025002;28;20510;-74
2022/01/04 02:27:27;;;;;;;33.88;6.03;;;7.40;99.90;;;;;;5019586;28;20053;-75
2022/01/04 02:29:52;;;;;;;25.73;5.57;;;7.40;99.90;;;;;;5004222;28;20048;-74
2022/01/04 02:32:18;;;;;;;30.23;5.88;;;7.40;99.90;;;;;;5004117;28;20122;-74
2022/01/04 02:34:50;;;;;;;33.15;6.97;;;7.40;99.90;;;;;;5019945;28;20049;-75
2022/01/04 02:37:21;;;;;;;20.25;5.25;;;7.40;99.90;;;;;;5003276;28;20049;-74
2022/01/04 02:39:48;;;;;;;39.58;6.13;;;7.50;99.90;;;;;;5018640;28;20057;-74
2022/01/04 02:42:14;;;;;;;33.05;5.90;;;7.50;99.90;;;;;;5025342;28;20071;-75
2022/01/04 02:44:40;;;;;;;36.70;5.93;;;7.50;99.90;;;;;;5019378;28;20137;-74
2022/01/04 02:47:06;;;;;;;28.95;5.43;;;7.50;99.90;;;;;;5018760;28;20124;-74
2022/01/04 02:49:31;;;;;;;35.42;6.82;;;7.50;99.90;;;;;;5019799;28;20042;-74
2022/01/04 02:51:57;;;;;;;37.15;6.20;;;7.60;99.90;;;;;;5019546;28;20033;-74
2022/01/04 02:54:23;;;;;;;32.05;5.85;;;7.50;99.90;;;;;;5009769;28;20053;-75
2022/01/04 02:56:49;;;;;;;33.63;5.25;;;7.60;99.90;;;;;;5027246;28;20049;-75
2022/01/04 02:59:15;;;;;;;34.03;5.32;;;7.60;99.90;;;;;;5031690;28;20041;-74
2022/01/04 03:01:41;;;;;;;36.47;5.43;;;7.60;99.90;;;;;;5006474;28;20048;-74
2022/01/04 03:04:08;;;;;;;39.92;5.82;;;7.60;99.90;;;;;;5005240;28;20049;-75
2022/01/04 03:06:34;;;;;;;42.13;6.97;;;7.60;99.90;;;;;;5019170;28;20567;-75
2022/01/04 03:09:01;;;;;;;28.98;5.93;;;7.60;99.90;;;;;;5007391;28;20183;-74
2022/01/04 03:11:27;;;;;;;35.85;5.50;;;7.60;99.90;;;;;;5026278;28;20116;-74
2022/01/04 03:13:53;;;;;;;27.70;4.88;;;7.60;99.90;;;;;;5014023;28;20145;-74
2022/01/04 03:16:18;;;;;;;37.35;6.10;;;8.00;99.90;;;;;;5024374;28;20171;-74
2022/01/04 03:19:17;;;;;;;31.88;6.00;;;7.60;99.90;;;;;;5001323;28;20046;-73
2022/01/04 03:21:39;;;;;;;34.47;5.97;;;7.60;99.90;;;;;;5011998;28;20110;-75
2022/01/04 03:24:08;;;;;;;36.13;5.43;;;7.60;99.90;;;;;;5032244;28;20123;-74
2022/01/04 03:26:34;;;;;;;27.50;6.15;;;7.60;99.90;;;;;;5051124;28;20513;-74
2022/01/04 03:29:00;;;;;;;31.70;5.82;;;7.70;99.90;;;;;;5049489;28;20045;-73
2022/01/04 03:31:27;;;;;;;39.67;5.53;;;7.70;99.90;;;;;;5015504;28;20494;-73
2022/01/04 03:33:53;;;;;;;31.63;5.90;;;7.70;99.90;;;;;;5015776;28;20438;-73
2022/01/04 03:36:23;;;;;;;27.85;5.55;;;7.70;99.90;;;;;;4999809;28;20100;-74
2022/01/04 03:38:50;;;;;;;31.05;5.00;;;7.70;99.90;;;;;;5037744;28;20057;-74
2022/01/04 03:41:17;;;;;;;31.58;5.30;;;7.80;99.90;;;;;;5029808;28;20454;-74
2022/01/04 03:43:43;;;;;;;35.40;6.03;;;7.70;99.90;;;;;;5009981;28;20058;-74
2022/01/04 03:46:09;;;;;;;41.05;6.03;;;7.70;99.90;;;;;;5021215;28;20419;-74
2022/01/04 03:48:35;;;;;;;35.22;5.40;;;7.70;99.90;;;;;;5032973;28;20045;-75
2022/01/04 03:51:02;;;;;;;26.65;4.82;;;7.70;99.90;;;;;;5016431;28;20046;-75
2022/01/04 03:53:28;;;;;;;37.25;5.60;;;7.70;99.90;;;;;;5053389;28;20057;-75
2022/01/04 03:55:54;;;;;;;32.53;5.32;;;7.70;99.90;;;;;;5060491;28;20673;-74
2022/01/04 03:58:20;;;;;;;29.98;5.22;;;7.70;99.90;;;;;;5009588;28;20056;-74
2022/01/04 04:00:46;;;;;;;42.35;5.78;;;7.70;99.90;;;;;;5015750;28;20441;-75
2022/01/04 04:03:11;;;;;;;31.92;6.13;;;7.70;99.90;;;;;;5017153;28;20532;-74
2022/01/04 04:05:37;;;;;;;28.42;6.60;;;7.70;99.90;;;;;;5015578;28;20038;-74
2022/01/04 04:08:03;;;;;;;27.98;4.75;;;7.70;99.90;;;;;;5015993;28;21008;-75
2022/01/04 04:10:30;;;;;;;26.52;5.32;;;7.70;99.90;;;;;;5031351;28;20076;-75
2022/01/04 04:12:55;;;;;;;29.27;5.32;;;7.70;99.90;;;;;;5049136;28;20108;-75
2022/01/04 04:15:21;;;;;;;26.98;5.30;;;7.70;99.90;;;;;;5016684;28;20041;-75
2022/01/04 04:17:50;;;;;;;29.73;5.68;;;7.70;99.90;;;;;;5015981;28;20128;-75
2022/01/04 04:20:16;;;;;;;38.67;6.20;;;7.70;99.90;;;;;;5030775;28;20414;-75
2022/01/04 04:22:42;;;;;;;24.48;5.72;;;7.70;99.90;;;;;;5047398;28;20045;-75
2022/01/04 04:25:08;;;;;;;28.67;5.55;;;7.70;99.90;;;;;;4999989;28;20098;-75
2022/01/04 04:27:34;;;;;;;33.90;5.72;;;8.10;99.90;;;;;;5014610;28;20115;-75
2022/01/04 04:30:00;;;;;;;36.78;5.75;;;7.70;99.90;;;;;;5015787;28;20046;-76
2022/01/04 04:32:26;;;;;;;37.20;6.75;;;7.70;99.90;;;;;;4999367;28;20049;-75
2022/01/04 04:34:51;;;;;;;36.03;5.65;;;7.70;99.90;;;;;;5013928;28;20514;-75
2022/01/04 04:37:17;;;;;;;26.20;5.65;;;7.70;99.90;;;;;;5015429;28;20049;-75
2022/01/04 04:39:43;;;;;;;32.92;5.63;;;7.70;99.90;;;;;;5010372;28;20076;-75
2022/01/04 04:42:09;;;;;;;30.00;5.28;;;7.60;99.90;;;;;;5029636;28;20049;-76
2022/01/04 04:44:35;;;;;;;38.50;5.65;;;7.70;99.90;;;;;;5031049;28;20069;-75
2022/01/04 04:47:00;;;;;;;29.52;5.43;;;7.70;99.90;;;;;;5042425;28;20071;-75
2022/01/04 04:49:26;;;;;;;40.10;5.60;;;7.70;99.90;;;;;;5043610;28;20801;-74
2022/01/04 04:51:54;;;;;;;31.95;5.97;;;7.70;99.90;;;;;;5035429;28;20497;-74
2022/01/04 04:54:20;;;;;;;33.05;5.05;;;7.70;99.90;;;;;;5055239;28;20081;-74
2022/01/04 04:56:46;;;;;;;39.40;5.43;;;7.60;99.90;;;;;;5036588;28;20084;-73
2022/01/04 04:59:11;;;;;;;26.45;5.22;;;7.70;99.90;;;;;;5030182;28;20046;-74
2022/01/04 05:01:37;;;;;;;34.70;6.05;;;7.70;99.90;;;;;;5030799;28;20364;-74
2022/01/04 05:04:03;;;;;;;29.88;5.75;;;7.70;99.90;;;;;;5046787;28;20046;-73
2022/01/04 05:06:29;;;;;;;28.42;5.68;;;7.70;99.90;;;;;;5029838;28;20042;-74
2022/01/04 05:08:55;;;;;;;32.00;5.13;;;7.70;99.90;;;;;;5012808;28;20502;-74
2022/01/04 05:11:21;;;;;;;29.77;6.30;;;7.70;99.90;;;;;;4998519;28;20049;-75
2022/01/04 05:13:46;;;;;;;39.00;5.85;;;7.70;99.90;;;;;;5017859;28;20049;-74
2022/01/04 05:16:12;;;;;;;30.90;5.63;;;7.60;99.90;;;;;;5002495;28;20116;-74
2022/01/04 05:18:37;;;;;;;30.20;6.32;;;7.70;99.90;;;;;;5002294;28;20147;-74
2022/01/04 05:21:03;;;;;;;30.48;6.80;;;7.60;99.90;;;;;;4984551;28;20040;-74
2022/01/04 05:23:30;;;;;;;34.22;6.40;;;7.60;99.90;;;;;;5018487;28;20049;-74
2022/01/04 05:25:56;;;;;;;31.23;6.30;;;7.60;99.90;;;;;;4985965;28;20128;-74
2022/01/04 05:28:21;;;;;;;35.03;6.25;;;7.70;99.90;;;;;;5006937;28;20041;-74
2022/01/04 05:30:47;;;;;;;32.63;6.13;;;7.60;99.90;;;;;;5010595;28;20128;-74
2022/01/04 05:33:13;;;;;;;28.67;6.00;;;7.60;99.90;;;;;;4991439;28;20045;-74
2022/01/04 05:35:38;;;;;;;33.90;6.45;;;7.60;99.90;;;;;;5002159;28;20080;-75
2022/01/04 05:38:04;;;;;;;37.63;6.88;;;7.60;99.90;;;;;;5002697;28;20148;-74
2022/01/04 05:40:30;;;;;;;29.58;7.53;;;7.60;99.90;;;;;;5002881;28;20056;-74
2022/01/04 05:42:56;;;;;;;29.17;7.05;;;7.60;99.90;;;;;;5035591;28;20149;-74
2022/01/04 05:45:21;;;;;;;35.20;7.43;;;7.60;99.90;;;;;;5002564;28;20049;-74
2022/01/04 05:47:47;;;;;;;35.97;8.25;;;7.60;99.90;;;;;;5003923;28;20124;-74
2022/01/04 05:50:13;;;;;;;32.38;7.72;;;7.50;99.90;;;;;;5034451;28;20084;-74
2022/01/04 05:52:39;;;;;;;43.85;7.85;;;7.50;99.90;;;;;;5004284;28;20058;-75
2022/01/04 05:55:05;;;;;;;32.33;6.63;;;7.50;99.90;;;;;;5004861;28;20115;-74
2022/01/04 05:57:32;;;;;;;32.35;7.10;;;7.50;99.90;;;;;;4990186;28;20085;-74
2022/01/04 05:59:58;;;;;;;35.08;7.18;;;7.50;99.90;;;;;;5003308;28;20057;-74
2022/01/04 06:02:24;;;;;;;41.85;7.60;;;7.50;99.90;;;;;;5005413;28;20043;-74
2022/01/04 06:04:50;;;;;;;38.92;6.90;;;7.50;99.90;;;;;;4990058;28;20478;-74
2022/01/04 06:07:16;;;;;;;37.85;7.05;;;7.50;99.90;;;;;;5006707;28;20056;-74
2022/01/04 06:09:45;;;;;;;38.97;6.82;;;7.50;99.90;;;;;;5006011;28;20038;-74
2022/01/04 06:15:04;;;;;;;40.83;6.72;;;7.60;99.90;;;;;;5027278;28;20132;-74
2022/01/04 06:17:32;;;;;;;44.28;6.93;;;7.60;99.90;;;;;;5062221;28;20049;-74
2022/01/04 06:19:58;;;;;;;42.03;7.10;;;7.60;99.90;;;;;;5010985;28;20052;-74
2022/01/04 06:22:26;;;;;;;48.15;9.23;;;7.60;99.90;;;;;;5024185;28;20090;-74
2022/01/04 06:24:52;;;;;;;32.83;6.68;;;7.90;99.90;;;;;;5028232;28;20050;-74
2022/01/04 06:27:18;;;;;;;41.58;7.10;;;7.70;99.90;;;;;;5005197;28;20041;-75
2022/01/04 06:29:44;;;;;;;45.13;6.90;;;7.70;99.90;;;;;;5018861;28;20034;-74
2022/01/04 06:32:11;;;;;;;37.95;7.57;;;7.70;99.90;;;;;;5015974;28;20407;-74
2022/01/04 06:34:37;;;;;;;37.55;7.72;;;7.60;99.90;;;;;;5021376;28;20045;-74
2022/01/04 06:37:03;;;;;;;40.45;7.45;;;7.70;99.90;;;;;;5023173;28;20045;-74
2022/01/04 06:39:30;;;;;;;31.25;6.40;;;7.70;99.90;;;;;;5006808;28;20033;-75
2022/01/04 06:41:56;;;;;;;30.85;6.53;;;7.60;99.90;;;;;;5006271;28;20049;-74
2022/01/04 06:44:21;;;;;;;35.15;7.28;;;7.60;99.90;;;;;;5023243;28;20049;-74
2022/01/04 06:46:47;;;;;;;30.55;5.15;;;7.60;99.90;;;;;;5008339;28;20058;-74
2022/01/04 06:49:14;;;;;;;32.95;5.82;;;7.60;99.90;;;;;;5025632;28;20041;-74
2022/01/04 06:51:40;;;;;;;29.35;5.85;;;7.60;99.90;;;;;;5026423;28;20053;-74
2022/01/04 06:54:08;;;;;;;37.65;5.40;;;7.60;99.90;;;;;;5026163;28;20041;-74
2022/01/04 06:56:35;;;;;;;34.55;5.22;;;7.60;99.90;;;;;;5047139;28;20533;-74
2022/01/04 06:59:00;;;;;;;37.38;6.00;;;7.60;99.90;;;;;;5030361;28;20052;-74
2022/01/04 07:01:26;;;;;;;25.17;5.90;;;7.60;99.90;;;;;;5011744;28;20482;-74
2022/01/04 07:03:52;;;;;;;30.67;6.28;;;7.60;99.90;;;;;;5007108;28;20131;-74
2022/01/04 07:06:18;;;;;;;32.05;6.43;;;7.60;99.90;;;;;;5008249;28;20116;-74
2022/01/04 07:08:43;;;;;;;28.65;6.43;;;7.60;99.90;;;;;;5024688;28;20037;-74
2022/01/04 07:11:09;;;;;;;34.70;6.15;;;7.60;99.90;;;;;;5026359;28;20057;-74
2022/01/04 07:13:35;;;;;;;25.48;5.57;;;7.50;99.90;;;;;;5009051;28;20053;-74
2022/01/04 07:16:01;;;;;;;35.25;6.22;;;7.60;99.90;;;;;;5009506;28;20036;-74
2022/01/04 07:18:27;;;;;;;31.77;6.18;;;7.50;99.90;;;;;;5008739;28;20604;-74
2022/01/04 07:20:53;;;;;;;37.05;7.38;;;7.60;99.90;;;;;;5007198;28;20068;-75
2022/01/04 07:23:18;;;;;;;31.58;5.88;;;7.50;99.90;;;;;;5003242;28;20049;-75
2022/01/04 07:25:44;;;;;;;31.48;6.25;;;7.50;99.90;;;;;;5007697;28;20044;-74
2022/01/04 07:28:10;;;;;;;30.40;5.68;;;7.50;99.90;;;;;;5009331;28;20097;-74
2022/01/04 07:30:35;;;;;;;30.90;5.32;;;7.50;99.90;;;;;;5022987;28;20482;-75
2022/01/04 07:33:01;;;;;;;27.70;5.50;;;7.50;99.90;;;;;;5025468;28;20045;-74
2022/01/04 07:35:27;;;;;;;26.13;6.05;;;7.50;99.90;;;;;;5028878;28;20765;-75
2022/01/04 07:37:53;;;;;;;21.52;4.85;;;7.50;99.90;;;;;;5011275;28;21742;-74
2022/01/04 07:40:20;;;;;;;25.77;5.38;;;7.50;99.90;;;;;;5027679;28;20048;-74
2022/01/04 07:42:46;;;;;;;27.08;4.70;;;7.50;99.90;;;;;;5023452;28;20053;-75
2022/01/04 07:45:12;;;;;;;31.75;5.07;;;7.50;99.90;;;;;;5022129;28;20699;-75
2022/01/04 07:47:41;;;;;;;27.95;4.65;;;7.50;99.90;;;;;;5024553;28;20053;-74
2022/01/04 07:50:07;;;;;;;30.10;5.20;;;7.50;99.90;;;;;;5034650;28;20037;-75
2022/01/04 07:52:33;;;;;;;29.90;4.93;;;7.50;99.90;;;;;;5021714;28;20120;-75
2022/01/04 07:55:00;;;;;;;27.60;4.90;;;7.40;99.90;;;;;;5024786;28;20049;-75
2022/01/04 07:57:25;;;;;;;24.77;5.63;;;7.40;99.90;;;;;;5022097;28;20568;-74
2022/01/04 07:59:51;;;;;;;29.63;5.45;;;7.40;99.90;;;;;;5003512;28;20034;-75
2022/01/04 08:02:17;;;;;;;23.80;4.70;;;7.40;99.90;;;;;;5019845;28;20053;-75
2022/01/04 08:04:42;;;;;;;31.48;5.55;;;7.40;99.90;;;;;;5000726;28;20087;-75
2022/01/04 08:07:08;;;;;;;24.65;5.55;;;7.40;99.90;;;;;;4996131;28;20054;-75
2022/01/04 08:09:34;;;;;;;29.02;5.72;;;7.40;99.90;;;;;;5010940;28;20049;-75
2022/01/04 08:11:59;;;;;;;29.73;5.70;;;7.40;99.90;;;;;;4995065;28;21130;-75
2022/01/04 08:14:25;;;;;;;23.08;5.32;;;7.40;99.90;;;;;;5002567;28;20107;-75
2022/01/04 08:16:51;;;;;;;25.38;5.40;;;7.40;99.90;;;;;;5001859;28;20045;-75
2022/01/04 08:19:17;;;;;;;21.13;5.70;;;7.40;99.90;;;;;;5009776;28;20072;-75
2022/01/04 08:21:43;;;;;;;23.13;4.43;;;7.40;99.90;;;;;;5006862;28;20064;-75
2022/01/04 08:24:08;;;;;;;22.70;4.38;;;7.40;99.90;;;;;;5008495;28;20049;-74
2022/01/04 08:26:34;;;;;;;20.80;4.32;;;8.00;99.90;;;;;;5011357;28;20624;-75
2022/01/04 08:29:00;;;;;;;25.70;3.95;;;7.40;99.90;;;;;;5013083;28;20132;-74
2022/01/04 08:31:26;;;;;;;20.48;3.78;;;7.40;99.90;;;;;;4994939;28;20486;-74
2022/01/04 08:33:52;;;;;;;24.33;3.42;;;7.40;99.90;;;;;;5007361;28;20050;-75
2022/01/04 08:36:18;;;;;;;17.95;3.30;;;7.40;99.90;;;;;;5007010;28;20063;-74
2022/01/04 08:38:44;;;;;;;15.50;3.53;;;7.30;99.90;;;;;;5006738;28;20279;-74
2022/01/04 08:41:10;;;;;;;23.40;4.32;;;7.30;99.90;;;;;;5008268;28;20073;-74
2022/01/04 08:43:36;;;;;;;21.50;3.67;;;7.40;99.90;;;;;;5012482;28;20141;-75
2022/01/04 08:46:01;;;;;;;25.20;4.05;;;7.30;99.90;;;;;;5005866;28;20052;-75
2022/01/04 08:48:27;;;;;;;19.33;3.25;;;7.30;99.90;;;;;;5025007;28;20053;-74
2022/01/04 08:50:52;;;;;;;12.48;1.80;;;7.30;99.90;;;;;;4994557;28;20099;-74
2022/01/04 08:53:18;;;;;;;7.40;1.27;;;7.30;99.90;;;;;;5047759;28;20057;-74
2022/01/04 08:55:45;;;;;;;10.73;1.48;;;7.20;99.90;;;;;;4996742;28;20053;-74
2022/01/04 08:58:11;;;;;;;7.72;0.90;;;7.10;99.90;;;;;;5005806;28;20041;-74
2022/01/04 09:00:36;;;;;;;5.22;0.93;;;7.00;99.90;;;;;;5004884;28;20075;-74
2022/01/04 09:03:03;;;;;;;9.75;0.85;;;6.90;99.90;;;;;;5029933;28;20048;-74
2022/01/04 09:05:30;;;;;;;8.70;1.20;;;6.90;99.90;;;;;;5014028;28;20132;-74
2022/01/04 09:07:55;;;;;;;8.43;0.77;;;6.80;99.90;;;;;;4995974;28;20506;-74
2022/01/04 09:10:21;;;;;;;5.85;0.90;;;6.70;99.90;;;;;;5013292;28;20057;-74
2022/01/04 09:12:55;;;;;;;5.45;0.70;;;6.70;99.90;;;;;;5038738;28;20223;-74
2022/01/04 09:15:32;;;;;;;8.90;0.88;;;6.60;99.90;;;;;;5041733;28;20140;-74
2022/01/04 09:20:47;;;;;;;7.78;0.90;;;6.60;99.90;;;;;;5007135;28;20057;-74
2022/01/04 09:23:18;;;;;;;7.80;0.85;;;6.60;99.90;;;;;;5014420;28;20057;-74
2022/01/04 09:25:45;;;;;;;7.18;0.80;;;6.60;99.90;;;;;;5010498;28;20929;-74
2022/01/04 09:28:11;;;;;;;4.97;0.65;;;6.50;99.90;;;;;;5013486;28;20484;-73
2022/01/04 09:30:39;;;;;;;8.23;1.05;;;6.60;99.90;;;;;;4994309;28;20045;-74
2022/01/04 09:33:05;;;;;;;6.38;1.17;;;6.60;99.90;;;;;;4993609;28;20049;-74
2022/01/04 09:35:36;;;;;;;8.85;0.80;;;6.60;99.90;;;;;;5012813;28;20100;-75
2022/01/04 09:38:02;;;;;;;10.02;0.88;;;6.60;99.90;;;;;;5031131;28;20051;-74
2022/01/04 09:40:27;;;;;;;8.82;0.77;;;6.60;99.90;;;;;;5031275;28;20049;-74
2022/01/04 09:42:54;;;;;;;11.85;1.48;;;6.60;99.90;;;;;;5007170;28;20037;-74
2022/01/04 09:45:20;;;;;;;7.97;0.70;;;6.60;99.90;;;;;;5012360;28;20117;-74
2022/01/04 09:47:46;;;;;;;5.10;0.80;;;6.60;99.90;;;;;;5026007;28;20953;-73
2022/01/04 09:50:11;;;;;;;9.10;1.10;;;6.60;99.90;;;;;;5021010;28;20045;-75
2022/01/04 09:52:49;;;;;;;7.22;0.90;;;6.60;99.90;;;;;;4990537;28;20802;-74
2022/01/04 09:55:16;;;;;;;6.78;0.70;;;6.60;99.90;;;;;;5010790;28;20045;-75
2022/01/04 09:57:44;;;;;;;10.27;0.90;;;6.60;99.90;;;;;;5025514;28;20034;-75
2022/01/04 10:00:14;;;;;;;10.77;0.90;;;7.00;99.90;;;;;;5010020;28;20045;-75
2022/01/04 10:02:44;;;;;;;11.55;1.67;;;6.50;99.90;;;;;;5012338;28;21455;-76
2022/01/04 10:05:25;;;;;;;6.65;0.75;;;6.40;99.90;;;;;;5047189;28;20076;-75
2022/01/04 10:08:00;;;;;;;4.68;0.80;;;6.40;99.90;;;;;;5027247;28;20052;-75
2022/01/04 10:10:26;;;;;;;3.20;0.93;;;6.30;99.90;;;;;;5013118;28;20388;-75
2022/01/04 10:13:01;;;;;;;2.42;0.50;;;6.20;99.90;;;;;;4990665;28;20058;-76
2022/01/04 10:15:35;;;;;;;4.10;0.50;;;6.10;99.90;;;;;;5042543;28;20354;-75
2022/01/04 10:18:20;;;;;;;4.25;0.50;;;6.00;99.90;;;;;;4991132;28;20766;-75
2022/01/04 10:20:51;;;;;;;7.55;0.90;;;5.80;99.90;;;;;;5030044;28;20112;-75
2022/01/04 10:23:22;;;;;;;6.00;0.70;;;5.80;99.90;;;;;;5007538;28;20050;-75
2022/01/04 10:25:50;;;;;;;3.05;0.60;;;5.70;99.90;;;;;;5024756;28;20585;-74
2022/01/04 10:28:54;;;;;;;5.32;0.93;;;5.60;99.90;;;;;;4995923;28;20095;-75
2022/01/04 10:31:20;;;;;;;2.22;0.55;;;5.60;99.90;;;;;;4970632;28;20047;-75
2022/01/04 10:33:52;;;;;;;6.88;0.60;;;5.60;99.90;;;;;;4952654;28;20473;-74
2022/01/04 10:36:21;;;;;;;4.25;0.50;;;5.80;99.90;;;;;;4997000;28;20143;-75
2022/01/04 10:38:48;;;;;;;1.50;0.30;;;5.60;99.90;;;;;;4996788;28;20821;-75
2022/01/04 10:41:20;;;;;;;4.63;0.50;;;5.60;99.90;;;;;;5013400;28;20041;-74
2022/01/04 10:44:02;;;;;;;7.00;0.90;;;5.70;99.90;;;;;;5015961;28;20140;-74
2022/01/04 10:46:35;;;;;;;;;;;5.70;99.90;;;;;;5036125;28;20137;-74
2022/01/04 10:49:12;;;;;;;6.20;0.68;;;5.70;99.90;;;;;;5028166;28;19934;-75
2022/01/04 10:51:38;;;;;;;3.95;0.52;;;5.70;99.90;;;;;;5014610;28;20056;-75
2022/01/04 10:54:06;;;;;;;10.80;0.90;;;5.70;99.90;;;;;;5004915;28;20037;-75
2022/01/04 10:56:38;;;;;;;8.57;0.95;;;5.70;99.90;;;;;;5003299;28;20065;-74
2022/01/04 10:59:11;;;;;;;4.53;0.60;;;5.70;99.90;;;;;;5015842;28;20394;-75
2022/01/04 11:01:46;;;;;;;5.97;0.60;;;5.70;99.90;;;;;;5014714;28;20045;-75
2022/01/04 11:04:20;;;;;;;5.55;0.90;;;5.60;99.90;;;;;;5040113;28;20085;-75
2022/01/04 11:06:47;;;;;;;7.15;0.77;;;5.60;99.90;;;;;;5012890;28;20052;-76
2022/01/04 11:09:14;;;;;;;10.18;1.60;;;5.60;99.90;;;;;;5012363;28;20042;-76
2022/01/04 11:11:41;;;;;;;6.25;0.88;;;5.50;99.90;;;;;;5016072;28;20057;-75
2022/01/04 11:14:09;;;;;;;8.25;0.85;;;5.50;99.90;;;;;;5008466;28;20847;-74
2022/01/04 11:16:35;;;;;;;6.30;0.77;;;5.40;99.90;;;;;;5012383;28;20045;-75
2022/01/04 11:19:02;;;;;;;3.72;0.70;;;5.80;99.90;;;;;;5019443;28;20056;-75
2022/01/04 11:21:41;;;;;;;3.85;0.65;;;5.40;99.90;;;;;;5017271;28;20113;-75
2022/01/04 11:24:12;;;;;;;9.10;1.10;;;5.40;99.90;;;;;;5019294;28;20052;-75
2022/01/04 11:26:43;;;;;;;8.73;0.85;;;5.40;99.90;;;;;;5019557;28;20037;-76
2022/01/04 11:29:09;;;;;;;4.82;0.77;;;5.40;99.90;;;;;;4999936;28;20453;-75
2022/01/04 11:31:51;;;;;;;7.25;0.80;;;5.40;99.90;;;;;;5053665;28;20049;-75
2022/01/04 11:34:18;;;;;;;8.45;1.52;;;5.40;99.90;;;;;;5017810;28;20084;-75
2022/01/04 11:36:51;;;;;;;6.13;0.85;;;5.40;99.90;;;;;;5026121;28;20400;-75
2022/01/04 11:39:39;;;;;;;8.68;0.70;;;5.40;99.90;;;;;;5032652;28;20053;-75
2022/01/04 11:42:07;;;;;;;6.57;1.35;;;5.40;99.90;;;;;;5004033;28;20074;-75
2022/01/04 11:44:35;;;;;;;14.45;1.08;;;5.40;99.90;;;;;;5006647;28;20045;-75
2022/01/04 11:47:09;;;;;;;6.40;0.93;;;5.40;99.90;;;;;;4987042;28;20519;-75
2022/01/04 11:49:59;;;;;;;6.03;0.70;;;5.50;99.90;;;;;;5009045;28;20374;-75
2022/01/04 11:52:39;;;;;;;6.82;1.08;;;5.40;99.90;;;;;;4992693;28;20057;-75
2022/01/04 11:55:15;;;;;;;7.43;0.65;;;5.50;99.90;;;;;;5006721;28;20044;-75
2022/01/04 11:57:41;;;;;;;4.00;0.63;;;5.50;99.90;;;;;;5010070;28;20662;-75
2022/01/04 12:00:07;;;;;;;6.63;0.85;;;5.50;99.90;;;;;;5006667;28;20041;-73
2022/01/04 12:02:41;;;;;;;5.47;0.90;;;5.60;99.90;;;;;;5001539;28;20045;-73
2022/01/04 12:05:23;;;;;;;4.75;0.80;;;5.60;99.90;;;;;;5001471;28;20307;-72
2022/01/04 12:07:54;;;;;;;8.52;0.98;;;5.60;99.90;;;;;;4996905;28;20406;-72
2022/01/04 12:10:22;;;;;;;12.57;1.00;;;5.60;99.90;;;;;;5040485;28;20498;-72
2022/01/04 12:13:05;;;;;;;7.47;0.88;;;5.60;99.90;;;;;;5009235;28;20049;-72
2022/01/04 12:15:33;;;;;;;7.25;0.70;;;5.70;99.90;;;;;;5024869;28;20061;-73
2022/01/04 12:18:24;;;;;;;4.63;0.82;;;5.70;99.90;;;;;;5003249;28;20079;-72
2022/01/04 12:20:58;;;;;;;5.10;0.80;;;5.70;99.90;;;;;;4994238;28;20603;-72
2022/01/04 12:23:26;;;;;;;14.55;1.42;;;5.70;99.90;;;;;;5004774;28;20052;-72
2022/01/04 12:26:05;;;;;;;8.85;1.25;;;5.70;99.90;;;;;;5021135;28;20843;-73
2022/01/04 12:28:33;;;;;;;9.43;1.15;;;5.70;99.90;;;;;;5007650;28;20098;-73
2022/01/04 12:31:20;;;;;;;5.63;0.85;;;5.70;99.90;;;;;;5012903;28;20084;-73
2022/01/04 12:33:57;;;;;;;9.93;1.13;;;5.60;99.90;;;;;;5008749;28;20130;-73
2022/01/04 12:36:34;;;;;;;6.28;0.90;;;5.60;99.90;;;;;;5001255;28;20638;-73
2022/01/04 12:39:06;;;;;;;5.72;0.80;;;5.60;99.90;;;;;;5017233;28;20049;-72
2022/01/04 12:41:32;;;;;;;;;;;5.60;99.90;;;;;;4994540;28;20926;-73
2022/01/04 12:43:58;;;;;;;10.93;0.98;;;5.60;99.90;;;;;;5043462;28;20019;-73
2022/01/04 12:46:28;;;;;;;11.45;1.15;;;5.60;99.90;;;;;;5006609;28;20037;-73
2022/01/04 12:48:56;;;;;;;6.72;0.85;;;5.60;99.90;;;;;;5010476;28;20037;-73
2022/01/04 12:51:47;;;;;;;9.93;1.20;;;5.70;99.90;;;;;;5008127;28;20040;-73
2022/01/04 12:54:18;;;;;;;11.65;1.38;;;5.60;99.90;;;;;;5008256;28;20063;-73
2022/01/04 12:56:45;;;;;;;12.60;1.45;;;5.70;99.90;;;;;;5038435;28;20524;-73
2022/01/04 12:59:35;;;;;;;7.93;1.25;;;5.70;99.90;;;;;;5002696;28;20458;-73
2022/01/04 13:02:14;;;;;;;7.78;1.17;;;5.70;99.90;;;;;;5005043;28;20053;-74